Time;durP1;ratioP1;P1;durP2;ratioP2;P2;SDS_P1;SDS_P2;PMS_P1;PMS_P2;Temp;Humidity;BMP_temperature;BMP_pressure;BME280_temperature;BME280_humidity;BME280_pressure;Samples;Min_cycle;Max_cycle;Signal;HPM_P1;HPM_P2
2023/08/19 00:01:39;;;;;;;28.35;25.48;;;;;;;21.84;100.00;101122.44;5095827;28;20024;-50
2023/08/19 00:04:05;;;;;;;27.58;24.88;;;;;;;21.82;100.00;101117.22;5098129;28;20027;-53
2023/08/19 00:06:40;;;;;;;29.52;26.60;;;;;;;21.83;100.00;101124.28;5099120;28;20027;-51
2023/08/19 00:09:08;;;;;;;27.15;24.38;;;;;;;21.76;100.00;101113.38;5096266;28;20040;-51
2023/08/19 00:11:35;;;;;;;30.10;27.25;;;;;;;21.79;100.00;101114.88;5100594;28;20027;-51
2023/08/19 00:14:03;;;;;;;27.83;25.05;;;;;;;21.79;100.00;101114.88;5099047;28;20024;-54
2023/08/19 00:16:29;;;;;;;29.10;26.13;;;;;;;21.79;100.00;101115.72;5101561;28;20023;-52
2023/08/19 00:18:54;;;;;;;29.65;26.52;;;;;;;21.80;100.00;101119.28;5102682;28;20024;-50
2023/08/19 00:21:20;;;;;;;27.67;24.88;;;;;;;21.79;100.00;101110.31;5101217;28;20020;-52
2023/08/19 00:23:45;;;;;;;28.05;25.13;;;;;;;21.78;100.00;101111.34;5101457;28;20115;-51
2023/08/19 00:26:13;;;;;;;28.27;25.42;;;;;;;21.77;100.00;101115.06;5098002;28;20020;-52
2023/08/19 00:28:39;;;;;;;29.75;26.60;;;;;;;21.77;100.00;101106.13;5103478;28;20072;-51
2023/08/19 00:31:05;;;;;;;28.75;25.75;;;;;;;21.80;100.00;101111.16;5098182;28;20424;-53
2023/08/19 00:33:31;;;;;;;26.58;23.80;;;;;;;21.78;100.00;101105.06;5101579;28;20023;-51
2023/08/19 00:35:56;;;;;;;27.42;24.70;;;;;;;21.75;100.00;101103.59;5103656;28;20024;-52
2023/08/19 00:38:21;;;;;;;27.55;24.52;;;;;;;21.76;100.00;101110.66;5101043;28;20031;-53
2023/08/19 00:40:47;;;;;;;29.63;24.98;;;;;;;21.79;100.00;101109.47;5098380;28;20031;-51
2023/08/19 00:43:12;;;;;;;29.75;26.67;;;;;;;21.78;100.00;101114.06;5101268;28;20031;-52
2023/08/19 00:45:42;;;;;;;28.08;25.25;;;;;;;21.74;100.00;101112.72;5103963;28;20036;-51
2023/08/19 00:48:07;;;;;;;27.33;24.42;;;;;;;21.76;100.00;101116.06;5102876;28;20447;-50
2023/08/19 00:50:34;;;;;;;26.27;23.75;;;;;;;21.76;100.00;101110.66;5099041;28;20028;-50
2023/08/19 00:52:59;;;;;;;27.17;24.45;;;;;;;21.74;100.00;101112.72;5100981;28;20030;-50
2023/08/19 00:55:24;;;;;;;26.48;23.85;;;;;;;21.75;100.00;101108.16;5096935;28;20076;-50
2023/08/19 00:57:50;;;;;;;25.67;22.98;;;;;;;21.72;100.00;101101.25;5095783;28;20108;-51
2023/08/19 01:00:16;;;;;;;25.63;22.90;;;;;;;21.74;100.00;101103.78;5104662;28;20032;-53
2023/08/19 01:02:41;;;;;;;27.02;23.95;;;;;;;21.74;100.00;101101.91;5100744;28;20882;-50
2023/08/19 01:05:08;;;;;;;25.45;22.95;;;;;;;21.73;100.00;101100.25;5102753;28;20115;-51
2023/08/19 01:07:36;;;;;;;25.98;23.23;;;;;;;21.74;100.00;101092.97;5106454;28;20366;-51
2023/08/19 01:10:05;;;;;;;25.85;23.25;;;;;;;21.74;100.00;101093.81;5096617;28;20508;-51
2023/08/19 01:12:42;;;;;;;24.75;22.15;;;;;;;21.74;100.00;101096.50;5103637;28;20453;-50
2023/08/19 01:15:21;;;;;;;24.23;21.83;;;;;;;21.74;100.00;101096.50;5099144;28;20028;-53
2023/08/19 01:17:48;;;;;;;;;;;;;;;21.81;100.00;101094.72;5101971;28;20027;-51
2023/08/19 01:20:14;;;;;;;23.45;21.13;;;;;;;21.77;100.00;101090.72;5105540;28;19911;-50
2023/08/19 01:22:43;;;;;;;22.63;20.42;;;;;;;21.77;100.00;101093.44;5103808;28;20023;-53
2023/08/19 01:25:09;;;;;;;23.25;21.02;;;;;;;21.80;100.00;101093.06;5105698;28;20473;-52
2023/08/19 01:27:35;;;;;;;23.55;21.20;;;;;;;21.79;100.00;101093.25;5099565;28;20024;-51
2023/08/19 01:30:00;;;;;;;22.67;20.38;;;;;;;21.80;100.00;101087.66;5097596;28;20046;-50
2023/08/19 01:32:26;;;;;;;21.85;19.85;;;;;;;21.84;100.00;101084.59;5104554;28;20120;-50
2023/08/19 01:34:53;;;;;;;21.70;19.60;;;;;;;21.85;100.00;101075.44;5101884;28;20038;-51
2023/08/19 01:37:37;;;;;;;21.50;19.40;;;;;;;21.88;100.00;101070.47;5099473;28;20491;-53
2023/08/19 01:40:04;;;;;;;22.00;19.48;;;;;;;21.90;100.00;101067.59;5101058;28;20039;-52
2023/08/19 01:42:32;;;;;;;21.58;18.63;;;;;;;21.90;100.00;101062.19;5096389;28;20024;-51
2023/08/19 01:44:57;;;;;;;20.67;18.50;;;;;;;21.93;100.00;101065.38;5104696;28;20081;-53
2023/08/19 01:47:23;;;;;;;20.05;17.95;;;;;;;21.94;100.00;101055.41;5101317;28;20533;-54
2023/08/19 01:49:48;;;;;;;19.70;17.17;;;;;;;21.96;100.00;101064.16;5101614;28;20028;-52
2023/08/19 01:52:14;;;;;;;18.77;16.83;;;;;;;21.96;100.00;101066.84;5099012;28;20024;-51
2023/08/19 01:54:40;;;;;;;19.02;16.23;;;;;;;21.95;100.00;101057.09;5101821;28;20062;-51
2023/08/19 01:57:06;;;;;;;18.40;16.40;;;;;;;21.97;100.00;101057.72;5095558;28;20028;-53
2023/08/19 01:59:32;;;;;;;17.08;15.45;;;;;;;21.97;100.00;101063.97;5101865;28;20038;-54
2023/08/19 02:01:58;;;;;;;17.23;15.38;;;;;;;21.99;100.00;101061.91;5101427;28;20020;-54
2023/08/19 02:04:24;;;;;;;17.52;15.63;;;;;;;22.00;100.00;101049.25;5101935;28;20020;-51
2023/08/19 02:06:49;;;;;;;16.33;14.60;;;;;;;22.01;100.00;101048.19;5101471;28;20020;-53
2023/08/19 02:09:14;;;;;;;17.30;14.98;;;;;;;22.04;100.00;101053.25;5103199;28;20028;-51
2023/08/19 02:11:40;;;;;;;16.23;14.05;;;;;;;22.05;100.00;101056.78;5100927;28;20043;-52
2023/08/19 02:14:05;;;;;;;14.93;13.45;;;;;;;22.05;100.00;101054.06;5100855;28;20036;-51
2023/08/19 02:16:30;;;;;;;17.15;14.02;;;;;;;22.06;100.00;101044.94;5104465;28;20039;-52
2023/08/19 02:18:59;;;;;;;15.60;13.83;;;;;;;22.08;100.00;101048.28;5102198;28;20067;-53
2023/08/19 02:21:24;;;;;;;;;;;;;;;22.13;100.00;101049.41;5101845;28;20282;-53
2023/08/19 02:23:50;;;;;;;14.63;13.00;;;;;;;22.11;100.00;101045.22;5101372;28;19927;-51
2023/08/19 02:26:15;;;;;;;14.50;13.00;;;;;;;22.08;100.00;101043.75;5104743;28;20035;-53
2023/08/19 02:28:40;;;;;;;14.48;12.88;;;;;;;22.11;100.00;101037.09;5100953;28;20059;-52
2023/08/19 02:31:06;;;;;;;14.68;13.15;;;;;;;22.13;100.00;101037.75;5101126;27;20508;-53
2023/08/19 02:33:31;;;;;;;14.88;13.32;;;;;;;22.12;100.00;101028.78;5097955;28;20083;-52
2023/08/19 02:35:56;;;;;;;13.77;12.35;;;;;;;22.13;100.00;101040.44;5099460;28;20412;-51
2023/08/19 02:38:22;;;;;;;13.82;12.43;;;;;;;22.11;100.00;101035.22;5100008;28;20512;-53
2023/08/19 02:40:51;;;;;;;13.25;11.93;;;;;;;22.12;100.00;101030.66;5102544;28;20478;-54
2023/08/19 02:43:17;;;;;;;13.18;11.90;;;;;;;22.10;100.00;101032.69;5102134;28;20031;-51
2023/08/19 02:45:43;;;;;;;14.18;12.73;;;;;;;22.12;100.00;101025.25;5101692;28;20050;-50
2023/08/19 02:48:08;;;;;;;13.98;12.05;;;;;;;22.12;100.00;101026.09;5104930;28;20039;-53
2023/08/19 02:50:33;;;;;;;13.00;11.60;;;;;;;22.11;100.00;101031.69;5101222;28;20359;-53
2023/08/19 02:52:59;;;;;;;14.35;12.85;;;;;;;22.09;100.00;101028.34;5103831;28;20294;-50
2023/08/19 02:55:24;;;;;;;12.65;11.35;;;;;;;22.11;100.00;101024.41;5101679;28;20028;-50
2023/08/19 02:57:50;;;;;;;13.18;11.98;;;;;;;22.11;100.00;101027.09;5104131;28;20030;-52
2023/08/19 03:00:16;;;;;;;12.90;11.65;;;;;;;22.11;100.00;101029.81;5100119;28;20059;-51
2023/08/19 03:02:45;;;;;;;13.98;12.35;;;;;;;22.10;100.00;101019.19;5100135;28;20028;-52
2023/08/19 03:05:10;;;;;;;12.82;11.55;;;;;;;22.09;100.00;101021.06;5104215;28;20401;-50
2023/08/19 03:07:35;;;;;;;17.15;11.45;;;;;;;22.11;100.00;101029.81;5100376;28;20023;-52
2023/08/19 03:10:01;;;;;;;14.65;11.60;;;;;;;22.12;100.00;101027.97;5105468;28;20023;-52
2023/08/19 03:12:26;;;;;;;13.77;10.95;;;;;;;22.10;100.00;101027.28;5100048;28;20434;-50
2023/08/19 03:14:51;;;;;;;12.68;11.25;;;;;;;22.12;100.00;101025.25;5100736;28;20024;-49
2023/08/19 03:17:17;;;;;;;15.05;10.77;;;;;;;22.13;100.00;101018.81;5098779;28;20020;-50
2023/08/19 03:19:42;;;;;;;12.23;10.85;;;;;;;22.12;100.00;101020.69;5098904;28;20024;-53
2023/08/19 03:22:07;;;;;;;11.82;10.68;;;;;;;22.14;100.00;101015.06;5102795;28;20024;-51
2023/08/19 03:24:32;;;;;;;12.07;10.23;;;;;;;22.16;100.00;101015.72;5100859;28;20073;-51
2023/08/19 03:26:58;;;;;;;13.38;10.38;;;;;;;22.15;100.00;101022.19;5099158;28;20046;-50
2023/08/19 03:29:25;;;;;;;13.18;10.68;;;;;;;22.16;100.00;101016.56;5101325;28;20032;-50
2023/08/19 03:31:50;;;;;;;12.18;10.82;;;;;;;22.18;100.00;101019.06;5102345;28;20099;-50
2023/08/19 03:34:15;;;;;;;11.27;10.15;;;;;;;22.17;100.00;101020.13;5102459;28;20123;-50
2023/08/19 03:36:41;;;;;;;12.05;10.85;;;;;;;22.17;100.00;101015.53;5098524;28;20034;-50
2023/08/19 03:39:06;;;;;;;12.98;10.13;;;;;;;22.17;100.00;101017.41;5101562;28;20028;-50
2023/08/19 03:41:31;;;;;;;13.35;10.13;;;;;;;22.14;100.00;101026.72;5100151;28;20024;-50
2023/08/19 03:43:57;;;;;;;11.38;10.18;;;;;;;22.14;100.00;101020.50;5096831;28;20067;-49
2023/08/19 03:46:22;;;;;;;12.82;10.43;;;;;;;22.16;100.00;101015.72;5097369;28;20102;-52
2023/08/19 03:48:47;;;;;;;13.55;10.20;;;;;;;22.16;100.00;101023.84;5101425;28;20040;-50
2023/08/19 03:51:13;;;;;;;14.10;10.82;;;;;;;22.17;100.00;101017.41;5098299;28;20023;-50
2023/08/19 03:53:38;;;;;;;11.90;10.38;;;;;;;22.18;100.00;101027.19;5099438;28;20467;-49
2023/08/19 03:56:04;;;;;;;12.70;10.63;;;;;;;22.17;100.00;101023.66;5107523;28;20092;-50
2023/08/19 03:58:29;;;;;;;12.48;10.70;;;;;;;22.19;100.00;101028.88;5100244;28;20024;-49
2023/08/19 04:01:03;;;;;;;11.07;9.98;;;;;;;22.13;100.00;101021.50;5100794;28;20119;-49
2023/08/19 04:03:29;;;;;;;11.70;9.45;;;;;;;22.17;100.00;101020.94;5097786;28;20028;-50
2023/08/19 04:05:54;;;;;;;11.20;10.10;;;;;;;22.16;100.00;101024.66;5103457;28;20028;-50
2023/08/19 04:08:19;;;;;;;13.63;10.25;;;;;;;22.15;100.00;101028.41;5103291;28;21003;-49
2023/08/19 04:10:44;;;;;;;12.10;10.02;;;;;;;22.17;100.00;101029.06;5105798;28;20350;-50
2023/08/19 04:13:10;;;;;;;11.93;9.73;;;;;;;22.16;100.00;101030.06;5103986;28;20048;-50
2023/08/19 04:15:35;;;;;;;13.23;9.75;;;;;;;22.14;100.00;101032.13;5101814;28;20485;-50
2023/08/19 04:18:00;;;;;;;10.98;9.70;;;;;;;22.12;100.00;101034.19;5104319;27;20043;-50
2023/08/19 04:20:26;;;;;;;11.85;9.95;;;;;;;22.14;100.00;101042.13;5102009;28;20027;-50
2023/08/19 04:22:51;;;;;;;13.32;9.43;;;;;;;22.11;100.00;101035.22;5105431;28;20076;-51
2023/08/19 04:25:17;;;;;;;11.13;9.27;;;;;;;22.12;100.00;101033.38;5103065;28;20031;-50
2023/08/19 04:27:42;;;;;;;10.82;9.02;;;;;;;22.09;100.00;101041.88;5105811;28;20110;-50
2023/08/19 04:30:08;;;;;;;10.15;9.13;;;;;;;22.09;100.00;101028.34;5101795;28;20412;-51
2023/08/19 04:32:33;;;;;;;13.52;9.10;;;;;;;22.08;100.00;101027.50;5103745;28;20527;-50
2023/08/19 04:34:59;;;;;;;11.45;9.65;;;;;;;22.07;100.00;101031.22;5100651;28;20051;-50
2023/08/19 04:37:24;;;;;;;10.95;8.75;;;;;;;22.09;100.00;101039.16;5104323;28;20024;-50
2023/08/19 04:39:50;;;;;;;12.60;9.43;;;;;;;22.11;100.00;101039.81;5105963;28;20027;-52
2023/08/19 04:42:15;;;;;;;11.38;9.23;;;;;;;22.10;100.00;101041.69;5102787;28;20024;-50
2023/08/19 04:44:40;;;;;;;11.15;8.73;;;;;;;22.10;100.00;101038.97;5102576;28;20032;-49
2023/08/19 04:47:06;;;;;;;13.38;9.50;;;;;;;22.12;100.00;101041.50;5102816;28;20670;-51
2023/08/19 04:49:31;;;;;;;11.38;8.73;;;;;;;22.11;100.00;101037.09;5104665;28;20412;-53
2023/08/19 04:51:57;;;;;;;13.00;8.95;;;;;;;22.12;100.00;101030.66;5105990;28;20032;-52
2023/08/19 04:54:23;;;;;;;9.85;8.80;;;;;;;22.13;100.00;101032.31;5099849;28;20024;-50
2023/08/19 04:56:49;;;;;;;10.65;9.07;;;;;;;22.14;100.00;101031.31;5104470;28;20487;-52
2023/08/19 04:59:14;;;;;;;12.00;8.70;;;;;;;22.15;100.00;101033.84;5100175;28;20030;-51
2023/08/19 05:01:40;;;;;;;10.10;8.60;;;;;;;22.15;100.00;101028.41;5103942;27;20020;-52
2023/08/19 05:04:05;;;;;;;13.30;8.68;;;;;;;22.15;100.00;101035.72;5102102;28;20035;-51
2023/08/19 05:06:30;;;;;;;9.30;8.20;;;;;;;22.15;100.00;101033.84;5102220;28;20146;-53
2023/08/19 05:08:56;;;;;;;13.98;8.60;;;;;;;22.17;100.00;101044.47;5106136;28;20027;-52
2023/08/19 05:11:21;;;;;;;13.88;8.30;;;;;;;22.16;100.00;101043.59;5103548;28;20023;-53
2023/08/19 05:13:47;;;;;;;11.20;8.13;;;;;;;22.18;100.00;101036.16;5101937;28;20081;-53
2023/08/19 05:16:12;;;;;;;11.52;9.05;;;;;;;22.22;100.00;101043.91;5102101;28;20107;-51
2023/08/19 05:18:37;;;;;;;10.88;8.43;;;;;;;22.20;100.00;101048.63;5104801;28;20024;-52
2023/08/19 05:21:03;;;;;;;11.38;8.15;;;;;;;22.22;100.00;101046.59;5099442;28;20032;-54
2023/08/19 05:23:28;;;;;;;10.05;8.10;;;;;;;22.25;100.00;101048.91;5105348;28;20381;-53
2023/08/19 05:25:53;;;;;;;9.10;7.93;;;;;;;22.26;100.00;101056.84;5098760;28;20423;-51
2023/08/19 05:28:19;;;;;;;9.20;8.20;;;;;;;22.28;100.00;101062.94;5097191;28;20020;-53
2023/08/19 05:30:44;;;;;;;11.63;8.30;;;;;;;22.28;100.00;101054.84;5094348;28;20036;-52
2023/08/19 05:33:09;;;;;;;9.65;8.15;;;;;;;22.29;100.00;101045.66;5099476;28;20058;-51
2023/08/19 05:35:35;;;;;;;11.93;7.68;;;;;;;22.32;100.00;101052.59;5097486;28;20027;-52
2023/08/19 05:38:00;;;;;;;10.98;8.15;;;;;;;22.31;100.00;101051.72;5102492;28;20034;-51
2023/08/19 05:40:25;;;;;;;10.35;8.20;;;;;;;22.31;100.00;101048.19;5097104;28;20016;-52
2023/08/19 05:42:51;;;;;;;8.82;7.53;;;;;;;22.31;100.00;101051.72;5102577;28;20055;-50
2023/08/19 05:45:16;;;;;;;10.77;8.18;;;;;;;22.32;100.00;101061.53;5094745;28;20024;-51
2023/08/19 05:47:41;;;;;;;11.40;7.32;;;;;;;22.31;100.00;101054.44;5101182;28;20058;-51
2023/08/19 05:50:07;;;;;;;12.68;8.05;;;;;;;22.33;100.00;101055.09;5092465;28;20397;-54
2023/08/19 05:52:33;;;;;;;12.15;8.18;;;;;;;22.34;100.00;101047.81;5098452;28;20031;-51
2023/08/19 05:54:58;;;;;;;10.85;7.95;;;;;;;22.38;100.00;101059.09;5093767;28;20030;-51
2023/08/19 05:57:23;;;;;;;12.40;7.90;;;;;;;22.38;100.00;101054.50;5099828;28;20028;-51
2023/08/19 05:59:49;;;;;;;10.48;7.63;;;;;;;22.40;100.00;101068.72;5099039;28;20066;-50
2023/08/19 06:02:14;;;;;;;11.23;7.53;;;;;;;22.41;100.00;101073.06;5103657;28;20064;-50
2023/08/19 06:04:39;;;;;;;9.57;7.50;;;;;;;22.42;100.00;101074.75;5101784;28;20020;-51
2023/08/19 06:07:05;;;;;;;13.15;8.10;;;;;;;22.45;100.00;101074.38;5105712;28;20036;-50
2023/08/19 06:09:30;;;;;;;9.10;7.00;;;;;;;22.50;100.00;101079.25;5102635;28;20101;-51
2023/08/19 06:11:56;;;;;;;9.93;7.75;;;;;;;22.51;100.00;101072.78;5097041;28;20025;-49
2023/08/19 06:14:21;;;;;;;9.20;7.13;;;;;;;22.53;100.00;101079.69;5095982;28;20020;-49
2023/08/19 06:16:47;;;;;;;8.38;6.93;;;;;;;22.55;100.00;101079.50;5085108;28;20028;-52
2023/08/19 06:19:13;;;;;;;11.13;7.50;;;;;;;22.56;100.00;101083.88;5084711;28;20047;-49
2023/08/19 06:21:39;;;;;;;10.80;7.30;;;;;;;22.61;100.00;101089.53;5094947;28;20036;-49
2023/08/19 06:24:05;;;;;;;11.90;7.18;;;;;;;22.64;100.00;101094.59;5099991;28;20503;-48
2023/08/19 06:26:30;;;;;;;8.45;6.97;;;;;;;22.67;100.00;101098.78;5091363;28;20064;-51
2023/08/19 06:28:56;;;;;;;9.75;7.28;;;;;;;22.70;100.00;101098.41;5090019;28;20059;-50
2023/08/19 06:31:22;;;;;;;13.32;7.32;;;;;;;22.75;100.00;101098.66;5098499;28;20032;-50
2023/08/19 06:33:47;;;;;;;8.73;7.30;;;;;;;22.80;100.00;101103.50;5095823;28;20057;-49
2023/08/19 06:36:23;;;;;;;10.13;7.53;;;;;;;22.86;100.00;101106.28;5093059;28;20039;-49
2023/08/19 06:38:53;;;;;;;9.65;7.13;;;;;;;22.94;100.00;101099.91;5101901;28;20027;-48
2023/08/19 06:41:18;;;;;;;9.93;7.43;;;;;;;22.99;100.00;101107.44;5098759;28;20469;-49
2023/08/19 06:43:47;;;;;;;9.75;7.78;;;;;;;23.04;100.00;101113.97;5100929;28;20165;-49
2023/08/19 06:46:12;;;;;;;8.98;7.25;;;;;;;23.08;100.00;101122.56;5101340;28;20039;-49
2023/08/19 06:48:39;;;;;;;10.98;8.10;;;;;;;23.11;100.00;101113.22;5097849;28;20574;-48
2023/08/19 06:51:05;;;;;;;8.60;7.45;;;;;;;23.15;100.00;101119.91;5098961;28;20501;-50
2023/08/19 06:53:30;;;;;;;10.43;6.97;;;;;;;23.17;100.00;101124.13;5099609;28;20031;-50
2023/08/19 06:56:11;;;;;;;11.57;7.65;;;;;;;23.20;100.00;101125.59;5103524;28;20039;-50
2023/08/19 06:58:41;;;;;;;9.48;7.25;;;;;;;23.24;100.00;101126.91;5098866;28;20481;-49
2023/08/19 07:01:14;;;;;;;10.27;7.10;;;;;;;23.23;100.00;101133.34;5093685;28;20058;-50
2023/08/19 07:03:39;;;;;;;10.82;7.80;;;;;;;23.25;100.00;101125.88;5089934;28;20032;-50
2023/08/19 07:06:07;;;;;;;10.50;8.07;;;;;;;23.28;100.00;101137.16;5097303;28;20498;-50
2023/08/19 07:08:36;;;;;;;11.30;7.57;;;;;;;23.30;100.00;101127.97;5102350;28;20347;-50
2023/08/19 07:11:02;;;;;;;10.10;7.72;;;;;;;23.44;100.00;101133.31;5099020;28;20516;-49
2023/08/19 07:13:28;;;;;;;9.40;7.65;;;;;;;23.55;100.00;101134.69;5096915;28;20032;-50
2023/08/19 07:16:00;;;;;;;13.38;7.93;;;;;;;23.73;100.00;101126.06;5094017;28;20030;-50
2023/08/19 07:18:27;;;;;;;12.50;7.47;;;;;;;23.97;100.00;101134.78;5095618;28;20026;-50
2023/08/19 07:20:56;;;;;;;13.38;7.88;;;;;;;24.20;98.67;101138.06;5097410;28;20034;-50
2023/08/19 07:23:23;;;;;;;12.82;7.80;;;;;;;24.47;96.65;101138.19;5094925;28;20016;-49
2023/08/19 07:25:53;;;;;;;10.48;7.80;;;;;;;24.69;97.75;101146.22;5101079;28;20024;-50
2023/08/19 07:28:22;;;;;;;9.45;6.97;;;;;;;24.85;94.97;101143.16;5102389;28;20022;-50
2023/08/19 07:30:47;;;;;;;11.52;7.13;;;;;;;24.98;94.34;101127.91;5096145;28;20081;-50
2023/08/19 07:33:13;;;;;;;9.05;6.78;;;;;;;25.06;93.72;101154.91;5100775;28;20020;-49
2023/08/19 07:35:38;;;;;;;12.45;6.35;;;;;;;25.23;92.02;101153.47;5097826;28;20028;-50
2023/08/19 07:38:04;;;;;;;13.05;6.40;;;;;;;25.32;92.39;101172.34;5096628;28;20028;-49
2023/08/19 07:40:30;;;;;;;10.90;6.35;;;;;;;25.40;92.17;101161.25;5095692;28;20489;-50
2023/08/19 07:42:55;;;;;;;11.47;6.43;;;;;;;25.46;92.67;101174.88;5094588;28;20028;-49
2023/08/19 07:45:20;;;;;;;12.02;6.85;;;;;;;25.48;91.52;101161.88;5099390;28;20274;-50
2023/08/19 07:47:46;;;;;;;6.60;5.90;;;;;;;25.55;89.90;101170.03;5098801;28;20048;-54
2023/08/19 07:50:11;;;;;;;13.47;6.47;;;;;;;25.59;90.49;101181.34;5094064;28;20016;-51
2023/08/19 07:52:36;;;;;;;11.23;6.63;;;;;;;25.66;91.06;101183.03;5093464;28;20290;-53
2023/08/19 07:55:02;;;;;;;9.77;6.40;;;;;;;25.69;90.38;101189.09;5096504;28;20448;-52
2023/08/19 07:57:27;;;;;;;10.68;6.32;;;;;;;25.65;90.18;101185.97;5066842;28;20035;-52
2023/08/19 07:59:53;;;;;;;10.05;6.47;;;;;;;25.67;92.21;101172.97;5096073;28;20016;-52
2023/08/19 08:02:18;;;;;;;12.77;6.47;;;;;;;25.72;90.70;101165.00;5091819;28;20127;-52
2023/08/19 08:04:44;;;;;;;9.90;6.40;;;;;;;25.69;92.37;101173.59;5095936;28;20535;-51
2023/08/19 08:07:09;;;;;;;8.40;6.30;;;;;;;25.76;90.01;101179.84;5090803;28;20028;-52
2023/08/19 08:09:35;;;;;;;8.43;5.90;;;;;;;25.83;89.17;101177.13;5096443;28;20024;-52
2023/08/19 08:12:00;;;;;;;12.00;6.05;;;;;;;25.81;90.88;101198.28;5099417;28;20110;-52
2023/08/19 08:14:25;;;;;;;13.38;6.40;;;;;;;25.81;89.66;101182.81;5093691;28;20103;-52
2023/08/19 08:16:51;;;;;;;9.48;5.78;;;;;;;25.81;88.65;101182.81;5095348;28;20072;-51
2023/08/19 08:19:16;;;;;;;7.45;6.13;;;;;;;25.80;88.70;101188.47;5096861;28;20027;-52
2023/08/19 08:21:41;;;;;;;8.93;5.65;;;;;;;25.86;88.24;101195.75;5094100;28;20028;-53
2023/08/19 08:24:07;;;;;;;10.27;6.25;;;;;;;25.83;87.52;101204.34;5100388;28;20059;-54
2023/08/19 08:26:32;;;;;;;9.02;5.55;;;;;;;25.82;88.86;101210.84;5101707;28;20036;-53
2023/08/19 08:28:57;;;;;;;10.27;6.30;;;;;;;25.84;88.72;101220.47;5099908;28;20020;-53
2023/08/19 08:31:23;;;;;;;8.85;6.20;;;;;;;25.78;88.52;101218.59;5101106;28;20278;-53
2023/08/19 08:33:49;;;;;;;8.75;6.22;;;;;;;25.77;88.72;101191.59;5097735;28;20070;-50
2023/08/19 08:36:14;;;;;;;10.57;6.32;;;;;;;25.71;89.67;101238.69;5101354;28;20019;-50
2023/08/19 08:38:39;;;;;;;10.03;5.93;;;;;;;25.72;89.11;101241.19;5102725;28;20465;-50
2023/08/19 08:41:08;;;;;;;12.05;6.20;;;;;;;25.67;90.14;101238.25;5099621;28;20286;-50
2023/08/19 08:43:34;;;;;;;8.75;6.15;;;;;;;25.60;89.85;101232.81;5101430;28;20030;-50
2023/08/19 08:46:00;;;;;;;10.02;6.13;;;;;;;25.64;90.55;101238.69;5101295;28;20118;-50
2023/08/19 08:48:29;;;;;;;11.93;6.25;;;;;;;25.61;91.73;101237.22;5102915;28;20480;-50
2023/08/19 08:50:56;;;;;;;10.82;6.05;;;;;;;25.62;90.31;101241.59;5098848;28;20033;-52
2023/08/19 08:53:22;;;;;;;12.50;6.57;;;;;;;25.63;90.64;101242.44;5104486;28;20028;-51
2023/08/19 08:55:50;;;;;;;10.40;6.20;;;;;;;25.61;89.91;101247.25;5102954;28;20040;-51
2023/08/19 08:58:15;;;;;;;11.20;5.93;;;;;;;25.60;90.20;101257.28;5092359;28;20034;-50
2023/08/19 09:00:42;;;;;;;6.75;6.03;;;;;;;25.63;91.65;101259.59;5097151;28;20478;-51
2023/08/19 09:03:10;;;;;;;10.00;5.97;;;;;;;25.66;91.96;101272.81;5100724;28;20068;-50
2023/08/19 09:05:39;;;;;;;7.68;6.38;;;;;;;25.70;91.87;101275.09;5087215;28;20507;-49
2023/08/19 09:08:10;;;;;;;11.75;6.38;;;;;;;25.73;90.76;101271.94;5099882;28;20503;-50
2023/08/19 09:10:37;;;;;;;11.43;7.30;;;;;;;25.73;91.52;101271.94;5090667;28;20035;-49
2023/08/19 09:13:04;;;;;;;8.82;7.18;;;;;;;25.73;92.59;101278.25;5097258;28;20026;-49
2023/08/19 09:15:31;;;;;;;10.15;7.40;;;;;;;25.83;90.38;101289.56;5097986;28;20114;-50
2023/08/19 09:17:58;;;;;;;9.23;7.80;;;;;;;25.87;90.36;101292.69;5094017;28;20274;-48
2023/08/19 09:20:24;;;;;;;11.98;7.78;;;;;;;25.93;90.46;101291.00;5091849;28;20028;-48
2023/08/19 09:22:49;;;;;;;10.07;7.53;;;;;;;26.02;90.59;101293.34;5097075;28;20645;-49
2023/08/19 09:25:15;;;;;;;12.68;8.80;;;;;;;26.01;90.08;101299.88;5102162;28;20028;-48
2023/08/19 09:27:40;;;;;;;12.85;8.50;;;;;;;26.03;89.88;101303.19;5089637;28;20024;-49
2023/08/19 09:30:06;;;;;;;9.70;7.53;;;;;;;26.09;91.05;101303.41;5100368;28;20033;-48
2023/08/19 09:32:36;;;;;;;10.65;8.93;;;;;;;26.14;90.84;101303.63;5099156;28;20036;-49
2023/08/19 09:35:12;;;;;;;11.70;9.30;;;;;;;26.22;90.26;101315.13;5097107;28;20118;-49
2023/08/19 09:37:39;;;;;;;13.38;9.10;;;;;;;26.42;90.44;101311.56;5100181;28;20103;-50
2023/08/19 09:40:17;;;;;;;10.60;8.77;;;;;;;26.51;88.77;101318.47;5097498;28;20035;-48
2023/08/19 09:42:49;;;;;;;13.77;9.35;;;;;;;26.70;88.08;101311.31;5095169;28;20032;-49
2023/08/19 09:45:19;;;;;;;13.95;9.18;;;;;;;27.03;89.01;101315.84;5102215;28;20024;-49
2023/08/19 09:47:47;;;;;;;14.30;9.90;;;;;;;27.21;86.29;101327.94;5092844;28;20181;-50
2023/08/19 09:50:13;;;;;;;14.75;10.48;;;;;;;27.34;85.49;101338.81;5103209;28;20477;-52
2023/08/19 09:52:38;;;;;;;14.13;9.63;;;;;;;27.52;86.27;101342.72;5100758;27;20057;-49
2023/08/19 09:55:04;;;;;;;15.32;10.18;;;;;;;27.58;84.26;101350.88;5103178;28;20027;-49
2023/08/19 09:57:33;;;;;;;13.48;9.93;;;;;;;27.73;85.57;101350.56;5101480;28;20034;-49
2023/08/19 10:00:04;;;;;;;11.15;9.25;;;;;;;27.82;84.31;101357.44;5101290;28;20386;-49
2023/08/19 10:02:29;;;;;;;14.43;9.40;;;;;;;27.74;81.38;101356.84;5104170;28;20038;-49
2023/08/19 10:04:56;;;;;;;12.85;9.45;;;;;;;27.75;81.03;101364.00;5099606;28;20025;-49
2023/08/19 10:07:25;;;;;;;15.15;10.02;;;;;;;27.77;80.24;101361.88;5100357;28;20053;-51
2023/08/19 10:09:52;;;;;;;10.23;9.07;;;;;;;27.81;81.58;101363.97;5103020;28;20028;-49
2023/08/19 10:12:19;;;;;;;12.10;9.20;;;;;;;27.79;81.39;101370.69;5091281;28;20109;-50
2023/08/19 10:14:48;;;;;;;10.02;8.80;;;;;;;27.85;81.42;101369.81;5096237;28;20031;-50
2023/08/19 10:17:15;;;;;;;10.00;8.57;;;;;;;27.89;80.89;101371.03;5094972;28;20520;-50
2023/08/19 10:19:56;;;;;;;13.45;8.65;;;;;;;28.07;82.85;101366.75;5096869;28;20032;-50
2023/08/19 10:22:22;;;;;;;14.15;8.90;;;;;;;28.32;81.17;101372.22;5091127;28;20054;-49
2023/08/19 10:24:51;;;;;;;12.32;9.25;;;;;;;28.58;78.34;101377.47;5090209;28;20144;-50
2023/08/19 10:27:20;;;;;;;10.18;9.10;;;;;;;28.70;77.38;101383.03;5094256;28;20031;-49
2023/08/19 10:29:47;;;;;;;11.27;9.35;;;;;;;28.93;76.58;101389.78;5089671;28;20027;-49
2023/08/19 10:32:32;;;;;;;11.00;9.35;;;;;;;28.89;78.27;101383.88;5093736;28;20027;-52
2023/08/19 10:35:10;;;;;;;11.40;8.57;;;;;;;29.09;76.72;101383.66;5094231;28;20028;-49
2023/08/19 10:37:39;;;;;;;10.68;8.32;;;;;;;29.19;76.51;101376.88;5100431;28;20081;-50
2023/08/19 10:40:11;;;;;;;12.73;8.80;;;;;;;29.15;76.16;101387.41;5094675;28;20123;-50
2023/08/19 10:42:37;;;;;;;10.93;8.13;;;;;;;29.12;75.58;101398.81;5099840;28;20020;-49
2023/08/19 10:45:13;;;;;;;11.70;8.82;;;;;;;29.11;73.65;101411.66;5095812;28;20068;-50
2023/08/19 10:47:41;;;;;;;10.35;7.75;;;;;;;28.97;75.17;101415.59;5093073;28;20131;-49
2023/08/19 10:50:09;;;;;;;11.27;8.25;;;;;;;28.89;74.43;101422.16;5098852;28;20381;-50
2023/08/19 10:52:36;;;;;;;11.38;9.70;;;;;;;28.69;73.92;101437.94;5098123;28;20088;-48
2023/08/19 10:55:05;;;;;;;11.50;9.70;;;;;;;28.52;75.13;101434.91;5092426;28;20099;-50
2023/08/19 10:57:31;;;;;;;11.75;9.38;;;;;;;28.32;75.90;101444.09;5099580;28;20016;-49
2023/08/19 11:00:00;;;;;;;14.65;9.50;;;;;;;28.18;76.35;101439.78;5099108;28;20070;-49
2023/08/19 11:02:28;;;;;;;15.20;11.35;;;;;;;28.07;75.08;101443.22;5098933;28;20081;-49
2023/08/19 11:04:54;;;;;;;12.65;10.40;;;;;;;27.98;75.97;101457.13;5095633;28;20028;-51
2023/08/19 11:07:21;;;;;;;13.77;9.73;;;;;;;27.90;77.31;101446.44;5089631;28;20104;-49